sensor_id;sensor_type;location;lat;lon;timestamp;P1;durP1;ratioP1;P2;durP2;ratioP2
22186;SDS011;11259;52.146;12.844;2022-08-19T00:01:08;14.63;;;13.23;;
22186;SDS011;11259;52.146;12.844;2022-08-19T00:03:34;14.65;;;13.27;;
22186;SDS011;11259;52.146;12.844;2022-08-19T00:05:59;15.38;;;13.80;;
22186;SDS011;11259;52.146;12.844;2022-08-19T00:08:24;15.45;;;13.68;;
22186;SDS011;11259;52.146;12.844;2022-08-19T00:10:51;15.10;;;13.77;;
22186;SDS011;11259;52.146;12.844;2022-08-19T00:13:16;15.60;;;13.73;;
22186;SDS011;11259;52.146;12.844;2022-08-19T00:15:42;16.63;;;14.82;;
22186;SDS011;11259;52.146;12.844;2022-08-19T00:18:07;18.17;;;14.25;;
22186;SDS011;11259;52.146;12.844;2022-08-19T00:20:32;16.17;;;14.07;;
22186;SDS011;11259;52.146;12.844;2022-08-19T00:22:58;15.30;;;13.73;;
22186;SDS011;11259;52.146;12.844;2022-08-19T00:25:23;15.63;;;14.02;;
22186;SDS011;11259;52.146;12.844;2022-08-19T00:27:50;14.20;;;12.80;;
22186;SDS011;11259;52.146;12.844;2022-08-19T00:30:15;14.57;;;13.18;;
22186;SDS011;11259;52.146;12.844;2022-08-19T00:32:40;13.85;;;12.57;;
22186;SDS011;11259;52.146;12.844;2022-08-19T00:38:08;14.30;;;13.10;;
22186;SDS011;11259;52.146;12.844;2022-08-19T00:40:34;16.70;;;13.00;;
22186;SDS011;11259;52.146;12.844;2022-08-19T00:43:01;14.80;;;13.40;;
22186;SDS011;11259;52.146;12.844;2022-08-19T00:45:28;15.00;;;13.50;;
22186;SDS011;11259;52.146;12.844;2022-08-19T00:47:54;13.48;;;12.30;;
22186;SDS011;11259;52.146;12.844;2022-08-19T00:50:19;16.17;;;14.68;;
22186;SDS011;11259;52.146;12.844;2022-08-19T00:52:47;17.00;;;14.00;;
22186;SDS011;11259;52.146;12.844;2022-08-19T00:55:15;16.88;;;15.15;;
22186;SDS011;11259;52.146;12.844;2022-08-19T00:57:47;27.27;;;16.60;;
22186;SDS011;11259;52.146;12.844;2022-08-19T01:00:18;25.83;;;16.77;;
22186;SDS011;11259;52.146;12.844;2022-08-19T01:02:44;21.27;;;16.58;;
22186;SDS011;11259;52.146;12.844;2022-08-19T01:05:11;20.92;;;15.38;;
22186;SDS011;11259;52.146;12.844;2022-08-19T01:07:39;18.17;;;15.00;;
22186;SDS011;11259;52.146;12.844;2022-08-19T01:10:06;17.45;;;15.63;;
22186;SDS011;11259;52.146;12.844;2022-08-19T01:12:34;18.08;;;15.27;;
22186;SDS011;11259;52.146;12.844;2022-08-19T01:15:00;16.92;;;15.23;;
22186;SDS011;11259;52.146;12.844;2022-08-19T01:17:27;16.90;;;14.90;;
22186;SDS011;11259;52.146;12.844;2022-08-19T01:19:52;16.38;;;14.82;;
22186;SDS011;11259;52.146;12.844;2022-08-19T01:22:19;15.70;;;14.15;;
22186;SDS011;11259;52.146;12.844;2022-08-19T01:24:51;16.65;;;15.05;;
22186;SDS011;11259;52.146;12.844;2022-08-19T01:27:17;19.13;;;16.48;;
22186;SDS011;11259;52.146;12.844;2022-08-19T01:29:43;19.15;;;17.27;;
22186;SDS011;11259;52.146;12.844;2022-08-19T01:32:10;18.08;;;16.27;;
22186;SDS011;11259;52.146;12.844;2022-08-19T01:34:37;18.70;;;16.90;;
22186;SDS011;11259;52.146;12.844;2022-08-19T01:37:05;17.77;;;16.17;;
22186;SDS011;11259;52.146;12.844;2022-08-19T01:39:33;17.65;;;15.85;;
22186;SDS011;11259;52.146;12.844;2022-08-19T01:41:59;17.00;;;15.48;;
22186;SDS011;11259;52.146;12.844;2022-08-19T01:44:24;17.90;;;15.93;;
22186;SDS011;11259;52.146;12.844;2022-08-19T01:46:50;16.85;;;15.25;;
22186;SDS011;11259;52.146;12.844;2022-08-19T01:49:16;17.20;;;15.70;;
22186;SDS011;11259;52.146;12.844;2022-08-19T01:51:42;16.45;;;14.88;;
22186;SDS011;11259;52.146;12.844;2022-08-19T01:54:08;16.63;;;14.82;;
22186;SDS011;11259;52.146;12.844;2022-08-19T01:56:35;17.10;;;14.93;;
22186;SDS011;11259;52.146;12.844;2022-08-19T01:59:02;16.38;;;14.68;;
22186;SDS011;11259;52.146;12.844;2022-08-19T02:01:29;18.45;;;16.75;;
22186;SDS011;11259;52.146;12.844;2022-08-19T02:03:55;17.35;;;15.63;;
22186;SDS011;11259;52.146;12.844;2022-08-19T02:06:20;16.80;;;15.20;;
22186;SDS011;11259;52.146;12.844;2022-08-19T02:08:45;17.50;;;15.77;;
22186;SDS011;11259;52.146;12.844;2022-08-19T02:11:17;19.40;;;17.38;;
22186;SDS011;11259;52.146;12.844;2022-08-19T02:13:45;18.27;;;16.35;;
22186;SDS011;11259;52.146;12.844;2022-08-19T02:16:10;18.40;;;16.60;;
22186;SDS011;11259;52.146;12.844;2022-08-19T02:18:35;18.52;;;16.67;;
22186;SDS011;11259;52.146;12.844;2022-08-19T02:21:01;17.83;;;16.00;;
22186;SDS011;11259;52.146;12.844;2022-08-19T02:23:26;19.23;;;17.45;;
22186;SDS011;11259;52.146;12.844;2022-08-19T02:25:51;19.10;;;16.75;;
22186;SDS011;11259;52.146;12.844;2022-08-19T02:28:17;19.52;;;16.92;;
22186;SDS011;11259;52.146;12.844;2022-08-19T02:30:43;18.23;;;16.48;;
22186;SDS011;11259;52.146;12.844;2022-08-19T02:33:09;17.80;;;15.98;;
22186;SDS011;11259;52.146;12.844;2022-08-19T02:35:34;18.33;;;16.52;;
22186;SDS011;11259;52.146;12.844;2022-08-19T02:38:00;18.52;;;16.77;;
22186;SDS011;11259;52.146;12.844;2022-08-19T02:40:25;19.80;;;17.63;;
22186;SDS011;11259;52.146;12.844;2022-08-19T02:42:51;20.58;;;18.67;;
22186;SDS011;11259;52.146;12.844;2022-08-19T02:45:16;20.35;;;18.38;;
22186;SDS011;11259;52.146;12.844;2022-08-19T02:47:43;20.42;;;18.30;;
22186;SDS011;11259;52.146;12.844;2022-08-19T02:50:08;19.15;;;17.25;;
22186;SDS011;11259;52.146;12.844;2022-08-19T02:52:34;19.67;;;17.77;;
22186;SDS011;11259;52.146;12.844;2022-08-19T02:55:00;18.98;;;17.08;;
22186;SDS011;11259;52.146;12.844;2022-08-19T02:57:25;20.60;;;18.75;;
22186;SDS011;11259;52.146;12.844;2022-08-19T02:59:50;19.30;;;17.52;;
22186;SDS011;11259;52.146;12.844;2022-08-19T03:02:16;19.25;;;17.27;;
22186;SDS011;11259;52.146;12.844;2022-08-19T03:04:43;19.60;;;17.80;;
22186;SDS011;11259;52.146;12.844;2022-08-19T03:07:09;19.00;;;17.30;;
22186;SDS011;11259;52.146;12.844;2022-08-19T03:09:36;18.80;;;17.00;;
22186;SDS011;11259;52.146;12.844;2022-08-19T03:12:02;19.65;;;17.80;;
22186;SDS011;11259;52.146;12.844;2022-08-19T03:14:29;18.13;;;16.52;;
22186;SDS011;11259;52.146;12.844;2022-08-19T03:16:55;18.75;;;16.85;;
22186;SDS011;11259;52.146;12.844;2022-08-19T03:19:20;17.48;;;15.98;;
22186;SDS011;11259;52.146;12.844;2022-08-19T03:21:47;16.88;;;15.30;;
22186;SDS011;11259;52.146;12.844;2022-08-19T03:24:13;17.58;;;15.90;;
22186;SDS011;11259;52.146;12.844;2022-08-19T03:26:39;17.77;;;16.25;;
22186;SDS011;11259;52.146;12.844;2022-08-19T03:29:05;18.23;;;16.50;;
22186;SDS011;11259;52.146;12.844;2022-08-19T03:31:31;17.65;;;16.15;;
22186;SDS011;11259;52.146;12.844;2022-08-19T03:33:56;18.23;;;16.63;;
22186;SDS011;11259;52.146;12.844;2022-08-19T03:36:22;18.75;;;16.88;;
22186;SDS011;11259;52.146;12.844;2022-08-19T03:38:52;17.17;;;15.57;;
22186;SDS011;11259;52.146;12.844;2022-08-19T03:41:20;17.38;;;15.88;;
22186;SDS011;11259;52.146;12.844;2022-08-19T03:43:46;16.92;;;15.43;;
22186;SDS011;11259;52.146;12.844;2022-08-19T03:46:12;17.73;;;16.13;;
22186;SDS011;11259;52.146;12.844;2022-08-19T03:48:40;17.73;;;16.02;;
22186;SDS011;11259;52.146;12.844;2022-08-19T03:51:07;18.80;;;17.00;;
22186;SDS011;11259;52.146;12.844;2022-08-19T03:53:33;17.88;;;16.25;;
22186;SDS011;11259;52.146;12.844;2022-08-19T03:56:01;18.55;;;16.75;;
22186;SDS011;11259;52.146;12.844;2022-08-19T03:58:26;18.25;;;16.65;;
22186;SDS011;11259;52.146;12.844;2022-08-19T04:00:52;18.20;;;16.70;;
22186;SDS011;11259;52.146;12.844;2022-08-19T04:03:18;18.42;;;16.83;;
22186;SDS011;11259;52.146;12.844;2022-08-19T04:05:44;19.38;;;17.40;;
22186;SDS011;11259;52.146;12.844;2022-08-19T04:08:09;18.80;;;17.13;;
22186;SDS011;11259;52.146;12.844;2022-08-19T04:10:35;18.65;;;16.90;;
22186;SDS011;11259;52.146;12.844;2022-08-19T04:13:02;19.33;;;17.52;;
22186;SDS011;11259;52.146;12.844;2022-08-19T04:15:28;18.48;;;16.55;;
22186;SDS011;11259;52.146;12.844;2022-08-19T04:17:53;18.88;;;17.23;;
22186;SDS011;11259;52.146;12.844;2022-08-19T04:20:19;18.33;;;16.63;;
22186;SDS011;11259;52.146;12.844;2022-08-19T04:22:44;18.27;;;16.65;;
22186;SDS011;11259;52.146;12.844;2022-08-19T04:25:10;17.50;;;16.00;;
22186;SDS011;11259;52.146;12.844;2022-08-19T04:27:35;17.55;;;15.98;;
22186;SDS011;11259;52.146;12.844;2022-08-19T04:30:02;18.35;;;16.75;;
22186;SDS011;11259;52.146;12.844;2022-08-19T04:32:28;18.65;;;16.95;;
22186;SDS011;11259;52.146;12.844;2022-08-19T04:34:54;17.80;;;16.17;;
22186;SDS011;11259;52.146;12.844;2022-08-19T04:37:19;17.30;;;15.82;;
22186;SDS011;11259;52.146;12.844;2022-08-19T04:39:44;18.52;;;16.73;;
22186;SDS011;11259;52.146;12.844;2022-08-19T04:42:10;17.20;;;15.73;;
22186;SDS011;11259;52.146;12.844;2022-08-19T04:44:35;18.27;;;16.63;;
22186;SDS011;11259;52.146;12.844;2022-08-19T04:47:02;17.98;;;16.30;;
22186;SDS011;11259;52.146;12.844;2022-08-19T04:49:28;17.73;;;16.05;;
22186;SDS011;11259;52.146;12.844;2022-08-19T04:51:54;18.02;;;16.15;;
22186;SDS011;11259;52.146;12.844;2022-08-19T04:54:19;18.45;;;16.63;;
22186;SDS011;11259;52.146;12.844;2022-08-19T04:56:46;17.73;;;16.13;;
22186;SDS011;11259;52.146;12.844;2022-08-19T04:59:11;16.73;;;15.23;;
22186;SDS011;11259;52.146;12.844;2022-08-19T05:01:37;17.88;;;16.38;;
22186;SDS011;11259;52.146;12.844;2022-08-19T05:04:04;18.02;;;16.35;;
22186;SDS011;11259;52.146;12.844;2022-08-19T05:06:31;17.83;;;16.10;;
22186;SDS011;11259;52.146;12.844;2022-08-19T05:08:57;18.27;;;16.67;;
22186;SDS011;11259;52.146;12.844;2022-08-19T05:11:23;17.77;;;16.13;;
22186;SDS011;11259;52.146;12.844;2022-08-19T05:13:49;18.38;;;16.67;;
22186;SDS011;11259;52.146;12.844;2022-08-19T05:16:16;18.50;;;16.73;;
22186;SDS011;11259;52.146;12.844;2022-08-19T05:18:43;18.23;;;16.48;;
22186;SDS011;11259;52.146;12.844;2022-08-19T05:21:10;18.52;;;16.73;;
22186;SDS011;11259;52.146;12.844;2022-08-19T05:23:37;18.27;;;16.50;;
22186;SDS011;11259;52.146;12.844;2022-08-19T05:26:02;18.05;;;16.13;;
22186;SDS011;11259;52.146;12.844;2022-08-19T05:28:28;17.67;;;16.15;;
22186;SDS011;11259;52.146;12.844;2022-08-19T05:30:53;18.77;;;17.05;;
22186;SDS011;11259;52.146;12.844;2022-08-19T05:33:18;18.23;;;16.35;;
22186;SDS011;11259;52.146;12.844;2022-08-19T05:35:44;18.33;;;16.50;;
22186;SDS011;11259;52.146;12.844;2022-08-19T05:38:10;18.67;;;16.95;;
22186;SDS011;11259;52.146;12.844;2022-08-19T05:40:36;20.13;;;17.52;;
22186;SDS011;11259;52.146;12.844;2022-08-19T05:43:01;19.92;;;17.92;;
22186;SDS011;11259;52.146;12.844;2022-08-19T05:45:27;19.15;;;17.45;;
22186;SDS011;11259;52.146;12.844;2022-08-19T05:47:52;20.20;;;18.30;;
22186;SDS011;11259;52.146;12.844;2022-08-19T05:50:18;20.67;;;18.67;;
22186;SDS011;11259;52.146;12.844;2022-08-19T05:52:43;20.67;;;18.73;;
22186;SDS011;11259;52.146;12.844;2022-08-19T05:55:10;21.90;;;19.63;;
22186;SDS011;11259;52.146;12.844;2022-08-19T05:57:35;21.88;;;19.70;;
22186;SDS011;11259;52.146;12.844;2022-08-19T06:00:01;22.20;;;20.08;;
22186;SDS011;11259;52.146;12.844;2022-08-19T06:02:26;22.85;;;20.85;;
22186;SDS011;11259;52.146;12.844;2022-08-19T06:04:52;24.17;;;21.60;;
22186;SDS011;11259;52.146;12.844;2022-08-19T06:07:18;23.30;;;21.20;;
22186;SDS011;11259;52.146;12.844;2022-08-19T06:09:43;24.13;;;21.67;;
22186;SDS011;11259;52.146;12.844;2022-08-19T06:12:10;23.52;;;21.52;;
22186;SDS011;11259;52.146;12.844;2022-08-19T06:14:35;23.90;;;21.70;;
22186;SDS011;11259;52.146;12.844;2022-08-19T06:17:02;24.73;;;22.35;;
22186;SDS011;11259;52.146;12.844;2022-08-19T06:19:28;24.65;;;22.38;;
22186;SDS011;11259;52.146;12.844;2022-08-19T06:21:54;25.77;;;23.48;;
22186;SDS011;11259;52.146;12.844;2022-08-19T06:24:21;26.92;;;24.30;;
22186;SDS011;11259;52.146;12.844;2022-08-19T06:26:47;26.63;;;24.23;;
22186;SDS011;11259;52.146;12.844;2022-08-19T06:29:15;26.30;;;23.83;;
22186;SDS011;11259;52.146;12.844;2022-08-19T06:31:42;28.13;;;25.58;;
22186;SDS011;11259;52.146;12.844;2022-08-19T06:34:08;25.73;;;23.13;;
22186;SDS011;11259;52.146;12.844;2022-08-19T06:36:35;27.05;;;24.20;;
22186;SDS011;11259;52.146;12.844;2022-08-19T06:39:02;27.17;;;24.60;;
22186;SDS011;11259;52.146;12.844;2022-08-19T06:41:29;27.58;;;24.98;;
22186;SDS011;11259;52.146;12.844;2022-08-19T06:43:54;27.77;;;25.17;;
22186;SDS011;11259;52.146;12.844;2022-08-19T06:46:22;27.60;;;25.00;;
22186;SDS011;11259;52.146;12.844;2022-08-19T06:48:47;26.50;;;24.08;;
22186;SDS011;11259;52.146;12.844;2022-08-19T06:51:13;27.80;;;25.27;;
22186;SDS011;11259;52.146;12.844;2022-08-19T06:53:39;26.55;;;24.15;;
22186;SDS011;11259;52.146;12.844;2022-08-19T06:56:04;26.92;;;24.42;;
22186;SDS011;11259;52.146;12.844;2022-08-19T06:58:30;26.23;;;23.75;;
22186;SDS011;11259;52.146;12.844;2022-08-19T07:00:55;25.92;;;23.63;;
22186;SDS011;11259;52.146;12.844;2022-08-19T07:03:22;24.80;;;22.40;;
22186;SDS011;11259;52.146;12.844;2022-08-19T07:05:47;25.70;;;23.20;;
22186;SDS011;11259;52.146;12.844;2022-08-19T07:08:12;23.27;;;21.10;;
22186;SDS011;11259;52.146;12.844;2022-08-19T07:10:41;24.88;;;21.83;;
22186;SDS011;11259;52.146;12.844;2022-08-19T07:13:08;24.25;;;22.15;;
22186;SDS011;11259;52.146;12.844;2022-08-19T07:15:33;25.30;;;22.80;;
22186;SDS011;11259;52.146;12.844;2022-08-19T07:17:58;24.95;;;22.65;;
22186;SDS011;11259;52.146;12.844;2022-08-19T07:20:25;25.30;;;22.90;;
22186;SDS011;11259;52.146;12.844;2022-08-19T07:22:50;25.67;;;23.27;;
22186;SDS011;11259;52.146;12.844;2022-08-19T07:25:16;26.65;;;24.23;;
22186;SDS011;11259;52.146;12.844;2022-08-19T07:27:41;28.00;;;25.23;;
22186;SDS011;11259;52.146;12.844;2022-08-19T07:30:07;26.40;;;24.00;;
22186;SDS011;11259;52.146;12.844;2022-08-19T07:32:33;26.55;;;23.98;;
22186;SDS011;11259;52.146;12.844;2022-08-19T07:34:58;27.50;;;24.80;;
22186;SDS011;11259;52.146;12.844;2022-08-19T07:37:25;26.83;;;24.33;;
22186;SDS011;11259;52.146;12.844;2022-08-19T07:39:51;27.55;;;24.92;;
22186;SDS011;11259;52.146;12.844;2022-08-19T07:42:16;27.73;;;25.00;;
22186;SDS011;11259;52.146;12.844;2022-08-19T07:44:41;27.48;;;24.88;;
22186;SDS011;11259;52.146;12.844;2022-08-19T07:47:07;28.48;;;25.70;;
22186;SDS011;11259;52.146;12.844;2022-08-19T07:49:32;29.90;;;27.10;;
22186;SDS011;11259;52.146;12.844;2022-08-19T07:51:59;28.90;;;26.15;;
22186;SDS011;11259;52.146;12.844;2022-08-19T07:54:28;31.25;;;28.08;;
22186;SDS011;11259;52.146;12.844;2022-08-19T07:56:54;31.50;;;28.27;;
22186;SDS011;11259;52.146;12.844;2022-08-19T07:59:20;34.65;;;31.25;;
22186;SDS011;11259;52.146;12.844;2022-08-19T08:01:46;35.53;;;31.92;;
22186;SDS011;11259;52.146;12.844;2022-08-19T08:04:12;36.38;;;32.78;;
22186;SDS011;11259;52.146;12.844;2022-08-19T08:06:37;33.97;;;30.48;;
22186;SDS011;11259;52.146;12.844;2022-08-19T08:09:03;34.38;;;30.95;;
22186;SDS011;11259;52.146;12.844;2022-08-19T08:11:30;36.83;;;32.95;;
22186;SDS011;11259;52.146;12.844;2022-08-19T08:13:56;35.67;;;31.88;;
22186;SDS011;11259;52.146;12.844;2022-08-19T08:16:21;37.90;;;34.10;;
22186;SDS011;11259;52.146;12.844;2022-08-19T08:18:46;36.38;;;32.78;;
22186;SDS011;11259;52.146;12.844;2022-08-19T08:21:12;37.13;;;33.42;;
22186;SDS011;11259;52.146;12.844;2022-08-19T08:23:37;36.75;;;33.08;;
22186;SDS011;11259;52.146;12.844;2022-08-19T08:26:02;37.72;;;33.97;;
22186;SDS011;11259;52.146;12.844;2022-08-19T08:28:29;38.28;;;34.45;;
22186;SDS011;11259;52.146;12.844;2022-08-19T08:30:55;39.28;;;35.42;;
22186;SDS011;11259;52.146;12.844;2022-08-19T08:33:21;39.35;;;35.38;;
22186;SDS011;11259;52.146;12.844;2022-08-19T08:35:48;39.22;;;35.22;;
22186;SDS011;11259;52.146;12.844;2022-08-19T08:38:13;42.90;;;35.67;;
22186;SDS011;11259;52.146;12.844;2022-08-19T08:40:42;39.88;;;35.75;;
22186;SDS011;11259;52.146;12.844;2022-08-19T08:43:13;38.92;;;34.90;;
22186;SDS011;11259;52.146;12.844;2022-08-19T08:45:46;40.03;;;36.10;;
22186;SDS011;11259;52.146;12.844;2022-08-19T08:48:16;38.97;;;35.00;;
22186;SDS011;11259;52.146;12.844;2022-08-19T08:50:44;39.38;;;35.15;;
22186;SDS011;11259;52.146;12.844;2022-08-19T08:53:10;38.35;;;34.25;;
22186;SDS011;11259;52.146;12.844;2022-08-19T08:55:39;37.78;;;34.17;;
22186;SDS011;11259;52.146;12.844;2022-08-19T08:58:06;38.08;;;34.42;;
22186;SDS011;11259;52.146;12.844;2022-08-19T09:00:40;36.80;;;33.20;;
22186;SDS011;11259;52.146;12.844;2022-08-19T09:03:12;37.95;;;34.25;;
22186;SDS011;11259;52.146;12.844;2022-08-19T09:05:45;37.80;;;33.78;;
22186;SDS011;11259;52.146;12.844;2022-08-19T09:08:16;37.28;;;33.63;;
22186;SDS011;11259;52.146;12.844;2022-08-19T09:10:49;37.88;;;33.95;;
22186;SDS011;11259;52.146;12.844;2022-08-19T09:13:18;36.65;;;32.92;;
22186;SDS011;11259;52.146;12.844;2022-08-19T09:15:50;37.88;;;33.85;;
22186;SDS011;11259;52.146;12.844;2022-08-19T09:18:19;38.17;;;33.58;;
22186;SDS011;11259;52.146;12.844;2022-08-19T09:20:44;36.97;;;33.33;;
22186;SDS011;11259;52.146;12.844;2022-08-19T09:23:10;38.40;;;34.42;;
22186;SDS011;11259;52.146;12.844;2022-08-19T09:25:35;39.45;;;35.53;;
22186;SDS011;11259;52.146;12.844;2022-08-19T09:28:00;37.50;;;33.72;;
22186;SDS011;11259;52.146;12.844;2022-08-19T09:30:27;39.95;;;35.75;;
22186;SDS011;11259;52.146;12.844;2022-08-19T09:32:55;38.00;;;34.25;;
22186;SDS011;11259;52.146;12.844;2022-08-19T09:35:23;36.47;;;32.83;;
22186;SDS011;11259;52.146;12.844;2022-08-19T09:37:50;37.65;;;33.58;;
22186;SDS011;11259;52.146;12.844;2022-08-19T09:40:16;38.85;;;34.88;;
22186;SDS011;11259;52.146;12.844;2022-08-19T09:42:42;39.55;;;35.35;;
22186;SDS011;11259;52.146;12.844;2022-08-19T09:45:08;42.30;;;37.78;;
22186;SDS011;11259;52.146;12.844;2022-08-19T09:47:34;40.22;;;36.03;;
22186;SDS011;11259;52.146;12.844;2022-08-19T09:49:59;40.08;;;35.88;;
22186;SDS011;11259;52.146;12.844;2022-08-19T09:52:26;40.83;;;36.10;;
22186;SDS011;11259;52.146;12.844;2022-08-19T09:54:51;40.85;;;36.05;;
22186;SDS011;11259;52.146;12.844;2022-08-19T09:57:17;40.92;;;36.63;;
22186;SDS011;11259;52.146;12.844;2022-08-19T09:59:43;37.53;;;33.53;;
22186;SDS011;11259;52.146;12.844;2022-08-19T10:02:08;38.58;;;34.50;;
22186;SDS011;11259;52.146;12.844;2022-08-19T10:04:33;41.17;;;36.70;;
22186;SDS011;11259;52.146;12.844;2022-08-19T10:06:59;38.45;;;34.40;;
22186;SDS011;11259;52.146;12.844;2022-08-19T10:09:25;37.65;;;33.63;;
22186;SDS011;11259;52.146;12.844;2022-08-19T10:11:51;37.95;;;34.03;;
22186;SDS011;11259;52.146;12.844;2022-08-19T10:14:16;36.97;;;33.05;;
22186;SDS011;11259;52.146;12.844;2022-08-19T10:16:41;36.65;;;32.88;;
22186;SDS011;11259;52.146;12.844;2022-08-19T10:19:07;38.83;;;32.85;;
22186;SDS011;11259;52.146;12.844;2022-08-19T10:21:32;34.40;;;30.48;;
22186;SDS011;11259;52.146;12.844;2022-08-19T10:23:59;34.78;;;30.23;;
22186;SDS011;11259;52.146;12.844;2022-08-19T10:26:27;34.30;;;30.67;;
22186;SDS011;11259;52.146;12.844;2022-08-19T10:28:54;33.58;;;30.13;;
22186;SDS011;11259;52.146;12.844;2022-08-19T10:31:21;32.70;;;29.38;;
22186;SDS011;11259;52.146;12.844;2022-08-19T10:33:49;32.35;;;29.08;;
22186;SDS011;11259;52.146;12.844;2022-08-19T10:36:17;31.27;;;28.15;;
22186;SDS011;11259;52.146;12.844;2022-08-19T10:38:44;31.70;;;28.08;;
22186;SDS011;11259;52.146;12.844;2022-08-19T10:41:11;32.42;;;29.20;;
22186;SDS011;11259;52.146;12.844;2022-08-19T10:43:38;30.15;;;27.13;;
22186;SDS011;11259;52.146;12.844;2022-08-19T10:46:04;31.35;;;28.02;;
22186;SDS011;11259;52.146;12.844;2022-08-19T10:48:30;30.67;;;27.45;;
22186;SDS011;11259;52.146;12.844;2022-08-19T10:50:56;31.20;;;27.25;;
22186;SDS011;11259;52.146;12.844;2022-08-19T10:53:22;29.17;;;26.23;;
22186;SDS011;11259;52.146;12.844;2022-08-19T10:55:47;30.00;;;26.90;;
22186;SDS011;11259;52.146;12.844;2022-08-19T10:58:13;30.45;;;27.30;;
22186;SDS011;11259;52.146;12.844;2022-08-19T11:00:40;30.05;;;26.80;;
22186;SDS011;11259;52.146;12.844;2022-08-19T11:03:06;29.00;;;26.17;;
22186;SDS011;11259;52.146;12.844;2022-08-19T11:05:32;31.20;;;27.98;;
22186;SDS011;11259;52.146;12.844;2022-08-19T11:07:57;30.85;;;27.65;;
22186;SDS011;11259;52.146;12.844;2022-08-19T11:10:22;31.77;;;28.48;;
22186;SDS011;11259;52.146;12.844;2022-08-19T11:12:48;31.88;;;28.52;;
22186;SDS011;11259;52.146;12.844;2022-08-19T11:15:13;33.03;;;29.73;;
22186;SDS011;11259;52.146;12.844;2022-08-19T11:17:40;33.28;;;30.00;;
22186;SDS011;11259;52.146;12.844;2022-08-19T11:20:06;32.45;;;29.08;;
22186;SDS011;11259;52.146;12.844;2022-08-19T11:22:32;31.10;;;27.90;;
22186;SDS011;11259;52.146;12.844;2022-08-19T11:24:58;33.42;;;29.77;;
22186;SDS011;11259;52.146;12.844;2022-08-19T11:27:23;31.92;;;28.55;;
22186;SDS011;11259;52.146;12.844;2022-08-19T11:29:48;30.70;;;27.48;;
22186;SDS011;11259;52.146;12.844;2022-08-19T11:32:14;30.50;;;27.55;;
22186;SDS011;11259;52.146;12.844;2022-08-19T11:34:40;30.95;;;27.83;;
22186;SDS011;11259;52.146;12.844;2022-08-19T11:37:06;31.90;;;28.60;;
22186;SDS011;11259;52.146;12.844;2022-08-19T11:39:32;31.00;;;27.83;;
22186;SDS011;11259;52.146;12.844;2022-08-19T11:41:58;32.33;;;29.05;;
22186;SDS011;11259;52.146;12.844;2022-08-19T11:44:24;29.15;;;26.27;;
22186;SDS011;11259;52.146;12.844;2022-08-19T11:46:49;28.52;;;25.55;;
22186;SDS011;11259;52.146;12.844;2022-08-19T11:49:15;28.00;;;25.15;;
22186;SDS011;11259;52.146;12.844;2022-08-19T11:51:43;28.77;;;25.90;;
22186;SDS011;11259;52.146;12.844;2022-08-19T11:54:10;28.92;;;26.02;;
22186;SDS011;11259;52.146;12.844;2022-08-19T11:56:36;28.15;;;25.40;;
22186;SDS011;11259;52.146;12.844;2022-08-19T11:59:02;28.33;;;25.52;;
22186;SDS011;11259;52.146;12.844;2022-08-19T12:01:27;29.20;;;26.27;;
22186;SDS011;11259;52.146;12.844;2022-08-19T12:03:54;29.02;;;25.92;;
22186;SDS011;11259;52.146;12.844;2022-08-19T12:06:21;28.98;;;25.88;;
22186;SDS011;11259;52.146;12.844;2022-08-19T12:08:48;29.02;;;26.13;;
22186;SDS011;11259;52.146;12.844;2022-08-19T12:11:14;29.30;;;26.48;;
22186;SDS011;11259;52.146;12.844;2022-08-19T12:13:40;32.95;;;27.45;;
22186;SDS011;11259;52.146;12.844;2022-08-19T12:16:07;29.02;;;26.08;;
22186;SDS011;11259;52.146;12.844;2022-08-19T12:18:32;29.30;;;26.08;;
22186;SDS011;11259;52.146;12.844;2022-08-19T12:20:58;28.20;;;25.50;;
22186;SDS011;11259;52.146;12.844;2022-08-19T12:23:23;29.10;;;26.20;;
22186;SDS011;11259;52.146;12.844;2022-08-19T12:25:50;29.38;;;26.38;;
22186;SDS011;11259;52.146;12.844;2022-08-19T12:28:15;29.05;;;25.67;;
22186;SDS011;11259;52.146;12.844;2022-08-19T12:30:41;30.45;;;27.15;;
22186;SDS011;11259;52.146;12.844;2022-08-19T12:33:06;30.15;;;27.02;;
22186;SDS011;11259;52.146;12.844;2022-08-19T12:35:31;28.83;;;25.92;;
22186;SDS011;11259;52.146;12.844;2022-08-19T12:37:57;28.40;;;25.42;;
22186;SDS011;11259;52.146;12.844;2022-08-19T12:40:22;29.85;;;26.40;;
22186;SDS011;11259;52.146;12.844;2022-08-19T12:42:49;31.25;;;27.83;;
22186;SDS011;11259;52.146;12.844;2022-08-19T12:45:14;28.95;;;26.00;;
22186;SDS011;11259;52.146;12.844;2022-08-19T12:47:39;29.42;;;26.35;;
22186;SDS011;11259;52.146;12.844;2022-08-19T12:50:05;29.02;;;25.92;;
22186;SDS011;11259;52.146;12.844;2022-08-19T12:52:31;28.35;;;25.52;;
22186;SDS011;11259;52.146;12.844;2022-08-19T12:54:57;29.33;;;26.23;;
22186;SDS011;11259;52.146;12.844;2022-08-19T12:57:23;28.58;;;25.67;;
22186;SDS011;11259;52.146;12.844;2022-08-19T12:59:52;27.95;;;25.10;;
22186;SDS011;11259;52.146;12.844;2022-08-19T13:02:18;29.05;;;26.10;;
22186;SDS011;11259;52.146;12.844;2022-08-19T13:04:43;28.38;;;25.27;;
22186;SDS011;11259;52.146;12.844;2022-08-19T13:07:08;30.05;;;26.45;;
22186;SDS011;11259;52.146;12.844;2022-08-19T13:09:34;28.83;;;24.77;;
22186;SDS011;11259;52.146;12.844;2022-08-19T13:11:59;26.40;;;23.65;;
22186;SDS011;11259;52.146;12.844;2022-08-19T13:14:25;29.42;;;26.45;;
22186;SDS011;11259;52.146;12.844;2022-08-19T13:16:51;29.65;;;26.50;;
22186;SDS011;11259;52.146;12.844;2022-08-19T13:19:17;29.50;;;26.42;;
22186;SDS011;11259;52.146;12.844;2022-08-19T13:21:42;27.60;;;24.92;;
22186;SDS011;11259;52.146;12.844;2022-08-19T13:24:07;27.23;;;24.45;;
22186;SDS011;11259;52.146;12.844;2022-08-19T13:26:33;28.60;;;25.63;;
22186;SDS011;11259;52.146;12.844;2022-08-19T13:28:58;28.02;;;25.00;;
22186;SDS011;11259;52.146;12.844;2022-08-19T13:31:24;27.52;;;24.67;;
22186;SDS011;11259;52.146;12.844;2022-08-19T13:33:52;27.30;;;24.40;;
22186;SDS011;11259;52.146;12.844;2022-08-19T13:36:17;30.98;;;26.50;;
22186;SDS011;11259;52.146;12.844;2022-08-19T13:38:43;31.15;;;27.83;;
22186;SDS011;11259;52.146;12.844;2022-08-19T13:41:08;30.63;;;27.33;;
22186;SDS011;11259;52.146;12.844;2022-08-19T13:43:33;31.60;;;28.17;;
22186;SDS011;11259;52.146;12.844;2022-08-19T13:45:59;31.40;;;28.13;;
22186;SDS011;11259;52.146;12.844;2022-08-19T13:48:25;29.85;;;26.63;;
22186;SDS011;11259;52.146;12.844;2022-08-19T13:50:52;32.53;;;29.02;;
22186;SDS011;11259;52.146;12.844;2022-08-19T13:53:17;31.38;;;28.13;;
22186;SDS011;11259;52.146;12.844;2022-08-19T13:55:43;30.20;;;27.10;;
22186;SDS011;11259;52.146;12.844;2022-08-19T13:58:09;31.85;;;27.98;;
22186;SDS011;11259;52.146;12.844;2022-08-19T14:00:41;29.73;;;26.70;;
22186;SDS011;11259;52.146;12.844;2022-08-19T14:03:07;30.80;;;27.67;;
22186;SDS011;11259;52.146;12.844;2022-08-19T14:05:33;30.90;;;27.60;;